sensor_id;sensor_type;location;lat;lon;timestamp;temperature;humidity
6758;DHT22;3416;53.074;8.822;2023-06-14T00:01:02;17.40;94.30
6758;DHT22;3416;53.074;8.822;2023-06-14T00:03:31;17.40;94.40
6758;DHT22;3416;53.074;8.822;2023-06-14T00:05:58;17.40;94.60
6758;DHT22;3416;53.074;8.822;2023-06-14T00:08:25;17.40;94.80
6758;DHT22;3416;53.074;8.822;2023-06-14T00:10:54;17.30;95.10
6758;DHT22;3416;53.074;8.822;2023-06-14T00:13:20;17.30;95.30
6758;DHT22;3416;53.074;8.822;2023-06-14T00:15:47;17.20;95.60
6758;DHT22;3416;53.074;8.822;2023-06-14T00:18:14;17.20;95.60
6758;DHT22;3416;53.074;8.822;2023-06-14T00:20:42;17.20;95.90
6758;DHT22;3416;53.074;8.822;2023-06-14T00:23:09;17.10;95.90
6758;DHT22;3416;53.074;8.822;2023-06-14T00:25:35;17.20;96.30
6758;DHT22;3416;53.074;8.822;2023-06-14T00:28:04;17.10;96.40
6758;DHT22;3416;53.074;8.822;2023-06-14T00:30:31;17.10;96.60
6758;DHT22;3416;53.074;8.822;2023-06-14T00:32:57;17.00;96.90
6758;DHT22;3416;53.074;8.822;2023-06-14T00:35:25;17.00;97.20
6758;DHT22;3416;53.074;8.822;2023-06-14T00:37:52;16.90;97.30
6758;DHT22;3416;53.074;8.822;2023-06-14T00:40:20;16.90;97.60
6758;DHT22;3416;53.074;8.822;2023-06-14T00:42:47;16.80;97.80
6758;DHT22;3416;53.074;8.822;2023-06-14T00:45:16;16.80;98.10
6758;DHT22;3416;53.074;8.822;2023-06-14T00:47:43;16.70;98.30
6758;DHT22;3416;53.074;8.822;2023-06-14T00:50:12;16.70;98.60
6758;DHT22;3416;53.074;8.822;2023-06-14T00:52:39;16.70;98.90
6758;DHT22;3416;53.074;8.822;2023-06-14T00:55:07;16.60;99.00
6758;DHT22;3416;53.074;8.822;2023-06-14T00:57:34;16.60;99.40
6758;DHT22;3416;53.074;8.822;2023-06-14T01:00:04;16.60;99.60
6758;DHT22;3416;53.074;8.822;2023-06-14T01:02:36;16.50;99.80
6758;DHT22;3416;53.074;8.822;2023-06-14T01:05:03;16.50;99.90
6758;DHT22;3416;53.074;8.822;2023-06-14T01:07:38;16.40;99.90
6758;DHT22;3416;53.074;8.822;2023-06-14T01:10:16;16.50;99.90
6758;DHT22;3416;53.074;8.822;2023-06-14T01:12:52;16.40;99.90
6758;DHT22;3416;53.074;8.822;2023-06-14T01:15:23;16.40;99.90
6758;DHT22;3416;53.074;8.822;2023-06-14T01:17:52;16.40;99.90
6758;DHT22;3416;53.074;8.822;2023-06-14T01:20:21;16.40;99.90
6758;DHT22;3416;53.074;8.822;2023-06-14T01:22:52;16.40;99.90
6758;DHT22;3416;53.074;8.822;2023-06-14T01:25:19;16.40;99.90
6758;DHT22;3416;53.074;8.822;2023-06-14T01:27:49;16.40;99.90
6758;DHT22;3416;53.074;8.822;2023-06-14T01:30:17;16.40;99.90
6758;DHT22;3416;53.074;8.822;2023-06-14T01:32:45;16.40;99.90
6758;DHT22;3416;53.074;8.822;2023-06-14T01:35:12;16.30;99.90
6758;DHT22;3416;53.074;8.822;2023-06-14T01:37:40;16.30;99.90
6758;DHT22;3416;53.074;8.822;2023-06-14T01:40:10;16.30;99.90
6758;DHT22;3416;53.074;8.822;2023-06-14T01:42:38;16.20;99.90
6758;DHT22;3416;53.074;8.822;2023-06-14T01:45:06;16.20;99.90
6758;DHT22;3416;53.074;8.822;2023-06-14T01:48:42;16.20;99.90
6758;DHT22;3416;53.074;8.822;2023-06-14T01:51:10;16.10;99.90
6758;DHT22;3416;53.074;8.822;2023-06-14T01:53:36;16.10;99.90
6758;DHT22;3416;53.074;8.822;2023-06-14T01:56:05;16.10;99.90
6758;DHT22;3416;53.074;8.822;2023-06-14T01:58:33;16.10;99.90
6758;DHT22;3416;53.074;8.822;2023-06-14T02:01:00;16.00;99.90
6758;DHT22;3416;53.074;8.822;2023-06-14T02:03:27;16.00;99.90
6758;DHT22;3416;53.074;8.822;2023-06-14T02:05:55;16.00;99.90
6758;DHT22;3416;53.074;8.822;2023-06-14T02:08:22;16.00;99.90
6758;DHT22;3416;53.074;8.822;2023-06-14T02:10:49;16.00;99.90
6758;DHT22;3416;53.074;8.822;2023-06-14T02:13:17;15.90;99.90
6758;DHT22;3416;53.074;8.822;2023-06-14T02:15:44;15.90;99.90
6758;DHT22;3416;53.074;8.822;2023-06-14T02:18:12;15.90;99.90
6758;DHT22;3416;53.074;8.822;2023-06-14T02:20:39;15.90;99.90
6758;DHT22;3416;53.074;8.822;2023-06-14T02:23:06;16.00;99.90
6758;DHT22;3416;53.074;8.822;2023-06-14T02:25:33;15.90;99.90
6758;DHT22;3416;53.074;8.822;2023-06-14T02:28:00;15.80;99.90
6758;DHT22;3416;53.074;8.822;2023-06-14T02:30:29;15.80;99.90
6758;DHT22;3416;53.074;8.822;2023-06-14T02:32:56;15.70;99.90
6758;DHT22;3416;53.074;8.822;2023-06-14T02:35:24;15.70;99.90
6758;DHT22;3416;53.074;8.822;2023-06-14T02:37:52;15.60;99.90
6758;DHT22;3416;53.074;8.822;2023-06-14T02:40:19;15.60;99.90
6758;DHT22;3416;53.074;8.822;2023-06-14T02:42:46;15.60;99.90
6758;DHT22;3416;53.074;8.822;2023-06-14T02:45:13;15.60;99.90
6758;DHT22;3416;53.074;8.822;2023-06-14T02:47:41;15.60;99.90
6758;DHT22;3416;53.074;8.822;2023-06-14T02:50:08;15.50;99.90
6758;DHT22;3416;53.074;8.822;2023-06-14T02:52:35;15.50;99.90
6758;DHT22;3416;53.074;8.822;2023-06-14T02:55:04;15.50;99.90
6758;DHT22;3416;53.074;8.822;2023-06-14T02:57:31;15.40;99.90
6758;DHT22;3416;53.074;8.822;2023-06-14T03:00:01;15.30;99.90
6758;DHT22;3416;53.074;8.822;2023-06-14T03:02:28;15.30;99.90
6758;DHT22;3416;53.074;8.822;2023-06-14T03:04:56;15.30;99.90
6758;DHT22;3416;53.074;8.822;2023-06-14T03:07:27;15.30;99.90
6758;DHT22;3416;53.074;8.822;2023-06-14T03:09:55;15.30;99.90
6758;DHT22;3416;53.074;8.822;2023-06-14T03:12:22;15.30;99.90
6758;DHT22;3416;53.074;8.822;2023-06-14T03:14:55;15.30;99.90
6758;DHT22;3416;53.074;8.822;2023-06-14T03:17:23;15.30;99.90
6758;DHT22;3416;53.074;8.822;2023-06-14T03:20:00;15.30;99.90
6758;DHT22;3416;53.074;8.822;2023-06-14T03:22:27;15.30;99.90
6758;DHT22;3416;53.074;8.822;2023-06-14T03:24:54;15.30;99.90
6758;DHT22;3416;53.074;8.822;2023-06-14T03:27:23;15.30;99.90
6758;DHT22;3416;53.074;8.822;2023-06-14T03:29:50;15.30;99.90
6758;DHT22;3416;53.074;8.822;2023-06-14T03:32:17;15.30;99.90
6758;DHT22;3416;53.074;8.822;2023-06-14T03:34:44;15.30;99.90
6758;DHT22;3416;53.074;8.822;2023-06-14T03:37:12;15.40;99.90
6758;DHT22;3416;53.074;8.822;2023-06-14T03:39:39;15.40;99.90
6758;DHT22;3416;53.074;8.822;2023-06-14T03:42:12;15.40;99.90
6758;DHT22;3416;53.074;8.822;2023-06-14T03:44:40;15.50;99.90
6758;DHT22;3416;53.074;8.822;2023-06-14T03:47:07;15.50;99.90
6758;DHT22;3416;53.074;8.822;2023-06-14T03:49:35;15.50;99.90
6758;DHT22;3416;53.074;8.822;2023-06-14T03:52:02;15.50;99.90
6758;DHT22;3416;53.074;8.822;2023-06-14T03:54:31;15.60;99.90
6758;DHT22;3416;53.074;8.822;2023-06-14T03:56:58;15.60;99.90
6758;DHT22;3416;53.074;8.822;2023-06-14T03:59:25;15.70;99.90
6758;DHT22;3416;53.074;8.822;2023-06-14T04:01:53;15.80;99.90
6758;DHT22;3416;53.074;8.822;2023-06-14T04:04:20;16.00;99.90
6758;DHT22;3416;53.074;8.822;2023-06-14T04:06:54;16.40;99.90
6758;DHT22;3416;53.074;8.822;2023-06-14T04:09:22;17.20;99.90
6758;DHT22;3416;53.074;8.822;2023-06-14T04:11:51;18.00;99.90
6758;DHT22;3416;53.074;8.822;2023-06-14T04:14:18;19.00;99.90
6758;DHT22;3416;53.074;8.822;2023-06-14T04:16:45;19.80;97.10
6758;DHT22;3416;53.074;8.822;2023-06-14T04:19:13;20.40;95.20
6758;DHT22;3416;53.074;8.822;2023-06-14T04:21:39;21.20;93.60
6758;DHT22;3416;53.074;8.822;2023-06-14T04:24:06;21.90;92.10
6758;DHT22;3416;53.074;8.822;2023-06-14T04:26:39;22.60;90.90
6758;DHT22;3416;53.074;8.822;2023-06-14T04:29:07;22.90;89.50
6758;DHT22;3416;53.074;8.822;2023-06-14T04:31:34;23.00;88.20
6758;DHT22;3416;53.074;8.822;2023-06-14T04:34:04;23.50;87.00
6758;DHT22;3416;53.074;8.822;2023-06-14T04:36:31;23.50;85.70
6758;DHT22;3416;53.074;8.822;2023-06-14T04:39:00;23.80;85.50
6758;DHT22;3416;53.074;8.822;2023-06-14T04:41:29;23.80;83.80
6758;DHT22;3416;53.074;8.822;2023-06-14T04:43:56;24.20;83.70
6758;DHT22;3416;53.074;8.822;2023-06-14T04:46:25;24.30;82.40
6758;DHT22;3416;53.074;8.822;2023-06-14T04:48:53;24.40;81.80
6758;DHT22;3416;53.074;8.822;2023-06-14T04:51:22;24.60;81.00
6758;DHT22;3416;53.074;8.822;2023-06-14T04:53:55;24.90;80.40
6758;DHT22;3416;53.074;8.822;2023-06-14T04:56:24;24.80;79.60
6758;DHT22;3416;53.074;8.822;2023-06-14T04:58:52;25.20;78.80
6758;DHT22;3416;53.074;8.822;2023-06-14T05:01:20;25.00;78.60
6758;DHT22;3416;53.074;8.822;2023-06-14T05:03:50;25.10;79.10
6758;DHT22;3416;53.074;8.822;2023-06-14T05:06:16;25.50;77.80
6758;DHT22;3416;53.074;8.822;2023-06-14T05:08:44;25.70;75.80
6758;DHT22;3416;53.074;8.822;2023-06-14T05:11:11;26.00;77.10
6758;DHT22;3416;53.074;8.822;2023-06-14T05:13:38;26.30;75.00
6758;DHT22;3416;53.074;8.822;2023-06-14T05:16:06;26.50;74.40
6758;DHT22;3416;53.074;8.822;2023-06-14T05:18:33;26.80;73.30
6758;DHT22;3416;53.074;8.822;2023-06-14T05:21:02;27.10;73.00
6758;DHT22;3416;53.074;8.822;2023-06-14T05:23:30;27.20;72.10
6758;DHT22;3416;53.074;8.822;2023-06-14T05:25:56;27.50;71.50
6758;DHT22;3416;53.074;8.822;2023-06-14T05:28:23;28.10;70.40
6758;DHT22;3416;53.074;8.822;2023-06-14T05:30:51;28.50;68.80
6758;DHT22;3416;53.074;8.822;2023-06-14T05:33:18;28.60;67.60
6758;DHT22;3416;53.074;8.822;2023-06-14T05:35:45;28.80;67.30
6758;DHT22;3416;53.074;8.822;2023-06-14T05:38:13;28.60;66.70
6758;DHT22;3416;53.074;8.822;2023-06-14T05:40:40;28.80;67.20
6758;DHT22;3416;53.074;8.822;2023-06-14T05:43:07;29.00;65.80
6758;DHT22;3416;53.074;8.822;2023-06-14T05:45:34;29.10;65.50
6758;DHT22;3416;53.074;8.822;2023-06-14T05:48:01;28.70;65.90
6758;DHT22;3416;53.074;8.822;2023-06-14T05:50:28;28.80;65.90
6758;DHT22;3416;53.074;8.822;2023-06-14T05:52:55;28.60;66.20
6758;DHT22;3416;53.074;8.822;2023-06-14T05:55:23;28.80;65.80
6758;DHT22;3416;53.074;8.822;2023-06-14T05:57:50;28.90;64.70
6758;DHT22;3416;53.074;8.822;2023-06-14T06:00:18;29.40;64.20
6758;DHT22;3416;53.074;8.822;2023-06-14T06:02:45;29.50;63.00
6758;DHT22;3416;53.074;8.822;2023-06-14T06:05:13;29.90;62.50
6758;DHT22;3416;53.074;8.822;2023-06-14T06:07:40;30.10;61.70
6758;DHT22;3416;53.074;8.822;2023-06-14T06:10:09;30.20;60.50
6758;DHT22;3416;53.074;8.822;2023-06-14T06:12:42;30.50;61.10
6758;DHT22;3416;53.074;8.822;2023-06-14T06:15:10;30.70;59.60
6758;DHT22;3416;53.074;8.822;2023-06-14T06:17:38;30.60;59.40
6758;DHT22;3416;53.074;8.822;2023-06-14T06:20:05;30.90;58.50
6758;DHT22;3416;53.074;8.822;2023-06-14T06:22:34;30.90;58.70
6758;DHT22;3416;53.074;8.822;2023-06-14T06:25:00;31.40;58.20
6758;DHT22;3416;53.074;8.822;2023-06-14T06:27:28;32.10;57.20
6758;DHT22;3416;53.074;8.822;2023-06-14T06:29:56;32.50;55.70
6758;DHT22;3416;53.074;8.822;2023-06-14T06:32:23;32.90;54.90
6758;DHT22;3416;53.074;8.822;2023-06-14T06:34:50;32.60;53.90
6758;DHT22;3416;53.074;8.822;2023-06-14T06:37:17;32.40;53.70
6758;DHT22;3416;53.074;8.822;2023-06-14T06:39:44;32.50;54.30
6758;DHT22;3416;53.074;8.822;2023-06-14T06:42:12;32.60;54.10
6758;DHT22;3416;53.074;8.822;2023-06-14T06:44:39;32.90;53.20
6758;DHT22;3416;53.074;8.822;2023-06-14T06:47:07;33.10;52.90
6758;DHT22;3416;53.074;8.822;2023-06-14T06:49:35;33.10;53.30
6758;DHT22;3416;53.074;8.822;2023-06-14T06:52:03;33.00;53.00
6758;DHT22;3416;53.074;8.822;2023-06-14T06:54:30;33.20;52.40
6758;DHT22;3416;53.074;8.822;2023-06-14T06:56:57;33.20;52.50
6758;DHT22;3416;53.074;8.822;2023-06-14T06:59:25;33.40;51.00
6758;DHT22;3416;53.074;8.822;2023-06-14T07:01:51;32.70;51.40
6758;DHT22;3416;53.074;8.822;2023-06-14T07:04:21;33.00;51.70
6758;DHT22;3416;53.074;8.822;2023-06-14T07:06:47;33.00;50.90
6758;DHT22;3416;53.074;8.822;2023-06-14T07:09:14;33.40;51.50
6758;DHT22;3416;53.074;8.822;2023-06-14T07:11:43;33.10;50.70
6758;DHT22;3416;53.074;8.822;2023-06-14T07:14:11;33.30;51.00
6758;DHT22;3416;53.074;8.822;2023-06-14T07:16:38;33.80;49.70
6758;DHT22;3416;53.074;8.822;2023-06-14T07:19:06;33.90;48.20
6758;DHT22;3416;53.074;8.822;2023-06-14T07:21:36;33.70;48.20
6758;DHT22;3416;53.074;8.822;2023-06-14T07:24:04;34.10;47.70
6758;DHT22;3416;53.074;8.822;2023-06-14T07:26:33;34.10;47.30
6758;DHT22;3416;53.074;8.822;2023-06-14T07:29:00;34.30;46.50
6758;DHT22;3416;53.074;8.822;2023-06-14T07:31:27;33.80;46.70
6758;DHT22;3416;53.074;8.822;2023-06-14T07:33:54;33.50;46.40
6758;DHT22;3416;53.074;8.822;2023-06-14T07:36:22;32.30;47.60
6758;DHT22;3416;53.074;8.822;2023-06-14T07:38:50;32.20;48.70
6758;DHT22;3416;53.074;8.822;2023-06-14T07:41:19;32.40;48.90
6758;DHT22;3416;53.074;8.822;2023-06-14T07:43:46;32.60;48.90
6758;DHT22;3416;53.074;8.822;2023-06-14T07:46:13;33.40;48.60
6758;DHT22;3416;53.074;8.822;2023-06-14T07:48:40;33.40;48.40
6758;DHT22;3416;53.074;8.822;2023-06-14T07:51:07;33.40;48.30
6758;DHT22;3416;53.074;8.822;2023-06-14T07:53:34;33.40;47.70
6758;DHT22;3416;53.074;8.822;2023-06-14T07:56:03;33.40;48.10
6758;DHT22;3416;53.074;8.822;2023-06-14T07:58:30;33.60;47.80
6758;DHT22;3416;53.074;8.822;2023-06-14T08:00:57;33.70;48.20
6758;DHT22;3416;53.074;8.822;2023-06-14T08:03:25;33.50;47.00
6758;DHT22;3416;53.074;8.822;2023-06-14T08:05:57;33.60;46.50
6758;DHT22;3416;53.074;8.822;2023-06-14T08:08:23;33.50;46.70
6758;DHT22;3416;53.074;8.822;2023-06-14T08:10:52;33.50;46.90
6758;DHT22;3416;53.074;8.822;2023-06-14T08:13:21;32.90;46.80
6758;DHT22;3416;53.074;8.822;2023-06-14T08:15:48;32.90;47.50
6758;DHT22;3416;53.074;8.822;2023-06-14T08:18:16;32.80;47.60
6758;DHT22;3416;53.074;8.822;2023-06-14T08:20:43;33.10;47.70
6758;DHT22;3416;53.074;8.822;2023-06-14T08:23:10;33.20;46.50
6758;DHT22;3416;53.074;8.822;2023-06-14T08:25:37;32.80;46.70
6758;DHT22;3416;53.074;8.822;2023-06-14T08:28:04;31.90;46.70
6758;DHT22;3416;53.074;8.822;2023-06-14T08:30:33;31.70;47.30
6758;DHT22;3416;53.074;8.822;2023-06-14T08:33:00;31.50;48.00
6758;DHT22;3416;53.074;8.822;2023-06-14T08:35:27;31.30;49.00
6758;DHT22;3416;53.074;8.822;2023-06-14T08:37:54;31.60;48.70
6758;DHT22;3416;53.074;8.822;2023-06-14T08:40:23;32.00;48.10
6758;DHT22;3416;53.074;8.822;2023-06-14T08:42:52;32.20;47.00
6758;DHT22;3416;53.074;8.822;2023-06-14T08:45:19;32.00;47.60
6758;DHT22;3416;53.074;8.822;2023-06-14T08:47:48;32.20;47.20
6758;DHT22;3416;53.074;8.822;2023-06-14T08:50:20;32.20;47.30
6758;DHT22;3416;53.074;8.822;2023-06-14T08:52:53;32.20;47.80
6758;DHT22;3416;53.074;8.822;2023-06-14T08:55:22;32.60;48.20
6758;DHT22;3416;53.074;8.822;2023-06-14T08:57:51;32.90;47.90
6758;DHT22;3416;53.074;8.822;2023-06-14T09:00:20;33.40;47.60
6758;DHT22;3416;53.074;8.822;2023-06-14T09:02:49;33.80;47.00
6758;DHT22;3416;53.074;8.822;2023-06-14T09:05:22;33.40;47.10
6758;DHT22;3416;53.074;8.822;2023-06-14T09:07:50;32.90;47.00
6758;DHT22;3416;53.074;8.822;2023-06-14T09:10:18;32.10;47.50
6758;DHT22;3416;53.074;8.822;2023-06-14T09:12:47;31.10;48.90
6758;DHT22;3416;53.074;8.822;2023-06-14T09:15:14;30.90;49.50
6758;DHT22;3416;53.074;8.822;2023-06-14T09:17:42;30.80;49.40
6758;DHT22;3416;53.074;8.822;2023-06-14T09:20:11;30.40;49.70
6758;DHT22;3416;53.074;8.822;2023-06-14T09:22:39;30.00;50.80
6758;DHT22;3416;53.074;8.822;2023-06-14T09:25:07;29.90;51.30
6758;DHT22;3416;53.074;8.822;2023-06-14T09:27:34;29.90;51.50
6758;DHT22;3416;53.074;8.822;2023-06-14T09:30:03;29.70;51.00
6758;DHT22;3416;53.074;8.822;2023-06-14T09:32:30;29.10;51.60
6758;DHT22;3416;53.074;8.822;2023-06-14T09:34:57;28.70;52.20
6758;DHT22;3416;53.074;8.822;2023-06-14T09:37:30;28.80;52.90
6758;DHT22;3416;53.074;8.822;2023-06-14T09:39:58;28.70;53.00
6758;DHT22;3416;53.074;8.822;2023-06-14T09:42:25;29.20;53.40
6758;DHT22;3416;53.074;8.822;2023-06-14T09:44:54;29.60;52.20
6758;DHT22;3416;53.074;8.822;2023-06-14T09:47:22;30.00;51.50
6758;DHT22;3416;53.074;8.822;2023-06-14T09:49:50;29.80;51.30
6758;DHT22;3416;53.074;8.822;2023-06-14T09:52:19;29.50;51.90
6758;DHT22;3416;53.074;8.822;2023-06-14T09:54:48;29.40;52.00
6758;DHT22;3416;53.074;8.822;2023-06-14T09:57:16;29.40;52.30
6758;DHT22;3416;53.074;8.822;2023-06-14T09:59:44;30.20;51.70
6758;DHT22;3416;53.074;8.822;2023-06-14T10:02:21;30.20;51.30
6758;DHT22;3416;53.074;8.822;2023-06-14T10:04:53;29.60;52.00
6758;DHT22;3416;53.074;8.822;2023-06-14T10:07:20;29.80;52.80
6758;DHT22;3416;53.074;8.822;2023-06-14T10:09:51;30.40;52.00
6758;DHT22;3416;53.074;8.822;2023-06-14T10:12:19;30.40;50.80
6758;DHT22;3416;53.074;8.822;2023-06-14T10:14:49;30.90;50.90
6758;DHT22;3416;53.074;8.822;2023-06-14T10:17:23;31.20;50.40
6758;DHT22;3416;53.074;8.822;2023-06-14T10:19:55;30.70;49.80
6758;DHT22;3416;53.074;8.822;2023-06-14T10:22:29;29.90;50.60
6758;DHT22;3416;53.074;8.822;2023-06-14T10:24:59;29.50;51.30
6758;DHT22;3416;53.074;8.822;2023-06-14T10:27:28;28.80;52.60
6758;DHT22;3416;53.074;8.822;2023-06-14T10:30:06;28.80;53.60
6758;DHT22;3416;53.074;8.822;2023-06-14T10:32:33;29.00;53.00
6758;DHT22;3416;53.074;8.822;2023-06-14T10:35:04;28.50;53.30
6758;DHT22;3416;53.074;8.822;2023-06-14T10:37:31;28.50;53.70
6758;DHT22;3416;53.074;8.822;2023-06-14T10:39:59;28.00;54.50
6758;DHT22;3416;53.074;8.822;2023-06-14T10:42:32;27.80;55.20
6758;DHT22;3416;53.074;8.822;2023-06-14T10:45:00;27.90;55.20
6758;DHT22;3416;53.074;8.822;2023-06-14T10:47:28;28.10;55.40
6758;DHT22;3416;53.074;8.822;2023-06-14T10:49:56;27.70;55.50
6758;DHT22;3416;53.074;8.822;2023-06-14T10:52:28;27.70;55.50
6758;DHT22;3416;53.074;8.822;2023-06-14T10:55:15;27.70;55.30
6758;DHT22;3416;53.074;8.822;2023-06-14T10:57:44;27.70;55.20
6758;DHT22;3416;53.074;8.822;2023-06-14T11:00:13;27.70;54.20
6758;DHT22;3416;53.074;8.822;2023-06-14T11:03:12;27.40;54.00
6758;DHT22;3416;53.074;8.822;2023-06-14T11:05:54;27.40;54.90
6758;DHT22;3416;53.074;8.822;2023-06-14T11:08:40;27.30;54.40
6758;DHT22;3416;53.074;8.822;2023-06-14T11:11:13;27.20;54.40
6758;DHT22;3416;53.074;8.822;2023-06-14T11:13:43;27.10;54.40
6758;DHT22;3416;53.074;8.822;2023-06-14T11:16:12;27.00;55.20
6758;DHT22;3416;53.074;8.822;2023-06-14T11:18:41;27.20;54.80
6758;DHT22;3416;53.074;8.822;2023-06-14T11:21:08;27.00;54.10
6758;DHT22;3416;53.074;8.822;2023-06-14T11:23:35;26.80;54.90
6758;DHT22;3416;53.074;8.822;2023-06-14T11:26:03;26.80;55.70
6758;DHT22;3416;53.074;8.822;2023-06-14T11:28:39;26.90;54.70
6758;DHT22;3416;53.074;8.822;2023-06-14T11:31:09;27.00;54.30
6758;DHT22;3416;53.074;8.822;2023-06-14T11:33:36;26.90;54.50
6758;DHT22;3416;53.074;8.822;2023-06-14T11:36:04;26.60;54.60
6758;DHT22;3416;53.074;8.822;2023-06-14T11:38:35;26.40;54.80
6758;DHT22;3416;53.074;8.822;2023-06-14T11:41:02;26.40;54.70
6758;DHT22;3416;53.074;8.822;2023-06-14T11:43:29;26.40;54.90
6758;DHT22;3416;53.074;8.822;2023-06-14T11:45:59;26.70;55.20
6758;DHT22;3416;53.074;8.822;2023-06-14T11:48:36;26.70;55.10
6758;DHT22;3416;53.074;8.822;2023-06-14T11:51:03;26.70;55.00
6758;DHT22;3416;53.074;8.822;2023-06-14T11:53:30;27.00;55.30
6758;DHT22;3416;53.074;8.822;2023-06-14T11:55:57;27.10;55.40
6758;DHT22;3416;53.074;8.822;2023-06-14T11:58:25;27.00;55.70
6758;DHT22;3416;53.074;8.822;2023-06-14T12:00:52;27.00;55.70
6758;DHT22;3416;53.074;8.822;2023-06-14T12:03:24;27.00;56.00
6758;DHT22;3416;53.074;8.822;2023-06-14T12:06:02;26.80;55.70
6758;DHT22;3416;53.074;8.822;2023-06-14T12:08:33;26.60;55.90
6758;DHT22;3416;53.074;8.822;2023-06-14T12:11:04;26.60;56.40
6758;DHT22;3416;53.074;8.822;2023-06-14T12:13:32;26.50;56.50
6758;DHT22;3416;53.074;8.822;2023-06-14T12:15:59;26.30;56.10
6758;DHT22;3416;53.074;8.822;2023-06-14T12:18:35;26.20;56.40
6758;DHT22;3416;53.074;8.822;2023-06-14T12:21:03;26.00;56.80
6758;DHT22;3416;53.074;8.822;2023-06-14T12:23:45;25.90;57.30
6758;DHT22;3416;53.074;8.822;2023-06-14T12:26:15;26.00;57.30
6758;DHT22;3416;53.074;8.822;2023-06-14T12:28:43;26.10;57.20
6758;DHT22;3416;53.074;8.822;2023-06-14T12:31:11;26.20;56.80
6758;DHT22;3416;53.074;8.822;2023-06-14T12:33:39;26.20;56.50
6758;DHT22;3416;53.074;8.822;2023-06-14T12:36:07;26.30;57.00
6758;DHT22;3416;53.074;8.822;2023-06-14T12:38:35;26.20;57.00
6758;DHT22;3416;53.074;8.822;2023-06-14T12:41:02;26.40;57.20
6758;DHT22;3416;53.074;8.822;2023-06-14T12:43:29;26.50;57.10
6758;DHT22;3416;53.074;8.822;2023-06-14T12:45:58;26.60;57.20
6758;DHT22;3416;53.074;8.822;2023-06-14T12:48:25;26.50;56.70
6758;DHT22;3416;53.074;8.822;2023-06-14T12:50:54;26.40;56.80
6758;DHT22;3416;53.074;8.822;2023-06-14T12:53:21;26.40;56.90
6758;DHT22;3416;53.074;8.822;2023-06-14T12:55:48;26.30;57.30
6758;DHT22;3416;53.074;8.822;2023-06-14T12:58:15;26.40;57.30
6758;DHT22;3416;53.074;8.822;2023-06-14T13:00:45;26.50;57.40
6758;DHT22;3416;53.074;8.822;2023-06-14T13:03:12;26.60;57.20
6758;DHT22;3416;53.074;8.822;2023-06-14T13:05:38;26.50;57.50
6758;DHT22;3416;53.074;8.822;2023-06-14T13:08:08;26.40;57.40
6758;DHT22;3416;53.074;8.822;2023-06-14T13:10:35;26.10;57.40
6758;DHT22;3416;53.074;8.822;2023-06-14T13:13:03;26.00;58.20
6758;DHT22;3416;53.074;8.822;2023-06-14T13:15:30;26.00;58.10
6758;DHT22;3416;53.074;8.822;2023-06-14T13:17:57;26.00;58.90
6758;DHT22;3416;53.074;8.822;2023-06-14T13:20:24;26.10;57.90
6758;DHT22;3416;53.074;8.822;2023-06-14T13:22:51;26.10;57.90
6758;DHT22;3416;53.074;8.822;2023-06-14T13:25:19;26.10;57.20
6758;DHT22;3416;53.074;8.822;2023-06-14T13:27:48;26.20;57.20
6758;DHT22;3416;53.074;8.822;2023-06-14T13:30:15;26.20;57.50
6758;DHT22;3416;53.074;8.822;2023-06-14T13:32:42;26.10;57.50
6758;DHT22;3416;53.074;8.822;2023-06-14T13:35:09;26.00;57.10
6758;DHT22;3416;53.074;8.822;2023-06-14T13:37:35;26.00;57.50
6758;DHT22;3416;53.074;8.822;2023-06-14T13:40:03;26.20;57.50
6758;DHT22;3416;53.074;8.822;2023-06-14T13:42:31;26.30;55.70
6758;DHT22;3416;53.074;8.822;2023-06-14T13:44:58;26.40;55.20
6758;DHT22;3416;53.074;8.822;2023-06-14T13:47:25;26.60;55.30
6758;DHT22;3416;53.074;8.822;2023-06-14T13:49:52;26.70;55.40
6758;DHT22;3416;53.074;8.822;2023-06-14T13:52:20;27.00;55.70
6758;DHT22;3416;53.074;8.822;2023-06-14T13:54:47;27.10;55.80
6758;DHT22;3416;53.074;8.822;2023-06-14T13:57:15;27.10;56.10
6758;DHT22;3416;53.074;8.822;2023-06-14T13:59:43;27.00;55.90
6758;DHT22;3416;53.074;8.822;2023-06-14T14:02:11;26.70;56.50
6758;DHT22;3416;53.074;8.822;2023-06-14T14:04:38;26.60;56.90
6758;DHT22;3416;53.074;8.822;2023-06-14T14:07:06;26.40;56.50
6758;DHT22;3416;53.074;8.822;2023-06-14T14:09:33;26.30;56.90
6758;DHT22;3416;53.074;8.822;2023-06-14T14:12:01;26.10;57.00
6758;DHT22;3416;53.074;8.822;2023-06-14T14:14:29;25.90;57.20
6758;DHT22;3416;53.074;8.822;2023-06-14T14:16:58;25.80;57.60
6758;DHT22;3416;53.074;8.822;2023-06-14T14:19:24;25.80;58.00
6758;DHT22;3416;53.074;8.822;2023-06-14T14:21:53;26.00;57.70
6758;DHT22;3416;53.074;8.822;2023-06-14T14:24:20;26.40;57.40
6758;DHT22;3416;53.074;8.822;2023-06-14T14:26:47;26.90;56.60
6758;DHT22;3416;53.074;8.822;2023-06-14T14:29:15;27.30;55.90
6758;DHT22;3416;53.074;8.822;2023-06-14T14:31:44;27.70;55.70
6758;DHT22;3416;53.074;8.822;2023-06-14T14:34:12;27.90;55.20
6758;DHT22;3416;53.074;8.822;2023-06-14T14:36:39;27.90;54.20
6758;DHT22;3416;53.074;8.822;2023-06-14T14:39:08;28.00;53.90
6758;DHT22;3416;53.074;8.822;2023-06-14T14:41:34;27.80;54.70
6758;DHT22;3416;53.074;8.822;2023-06-14T14:44:03;27.40;55.90
6758;DHT22;3416;53.074;8.822;2023-06-14T14:46:30;27.10;56.10
6758;DHT22;3416;53.074;8.822;2023-06-14T14:48:58;26.80;56.40
6758;DHT22;3416;53.074;8.822;2023-06-14T14:51:27;26.50;56.90
6758;DHT22;3416;53.074;8.822;2023-06-14T14:53:53;26.40;56.30
6758;DHT22;3416;53.074;8.822;2023-06-14T14:56:22;26.40;56.30
6758;DHT22;3416;53.074;8.822;2023-06-14T14:58:49;26.30;56.60
6758;DHT22;3416;53.074;8.822;2023-06-14T15:01:16;26.40;56.40
6758;DHT22;3416;53.074;8.822;2023-06-14T15:03:43;26.40;56.30
6758;DHT22;3416;53.074;8.822;2023-06-14T15:06:10;26.30;56.10
6758;DHT22;3416;53.074;8.822;2023-06-14T15:08:38;26.40;56.10
6758;DHT22;3416;53.074;8.822;2023-06-14T15:11:05;26.40;55.80
6758;DHT22;3416;53.074;8.822;2023-06-14T15:13:32;26.40;55.80
6758;DHT22;3416;53.074;8.822;2023-06-14T15:15:59;26.40;55.90
6758;DHT22;3416;53.074;8.822;2023-06-14T15:18:26;26.60;56.30
6758;DHT22;3416;53.074;8.822;2023-06-14T15:20:53;26.80;56.10
6758;DHT22;3416;53.074;8.822;2023-06-14T15:23:22;27.00;56.50
6758;DHT22;3416;53.074;8.822;2023-06-14T15:25:50;27.10;56.30
6758;DHT22;3416;53.074;8.822;2023-06-14T15:28:17;27.30;55.90
6758;DHT22;3416;53.074;8.822;2023-06-14T15:30:44;27.50;55.40
6758;DHT22;3416;53.074;8.822;2023-06-14T15:33:11;27.60;55.40
6758;DHT22;3416;53.074;8.822;2023-06-14T15:35:39;27.60;55.40
6758;DHT22;3416;53.074;8.822;2023-06-14T15:38:06;27.40;54.90
6758;DHT22;3416;53.074;8.822;2023-06-14T15:40:33;27.10;55.00
6758;DHT22;3416;53.074;8.822;2023-06-14T15:43:01;26.90;55.90
6758;DHT22;3416;53.074;8.822;2023-06-14T15:45:29;26.80;56.10
6758;DHT22;3416;53.074;8.822;2023-06-14T15:47:56;26.80;56.10
6758;DHT22;3416;53.074;8.822;2023-06-14T15:50:24;26.70;56.00
6758;DHT22;3416;53.074;8.822;2023-06-14T15:52:51;26.60;56.30
6758;DHT22;3416;53.074;8.822;2023-06-14T15:55:18;26.40;56.30
6758;DHT22;3416;53.074;8.822;2023-06-14T15:57:45;26.20;56.70
6758;DHT22;3416;53.074;8.822;2023-06-14T16:00:15;26.10;57.10
6758;DHT22;3416;53.074;8.822;2023-06-14T16:02:42;25.80;57.70
6758;DHT22;3416;53.074;8.822;2023-06-14T16:05:09;25.60;58.30
6758;DHT22;3416;53.074;8.822;2023-06-14T16:07:36;25.50;58.50
6758;DHT22;3416;53.074;8.822;2023-06-14T16:10:03;25.40;58.70